sensor_id;sensor_type;location;lat;lon;timestamp;temperature;humidity
14733;DHT22;7457;50.960;6.830;2022-07-23T00:00:49;18.00;96.00
14733;DHT22;7457;50.960;6.830;2022-07-23T00:03:14;18.00;96.20
14733;DHT22;7457;50.960;6.830;2022-07-23T00:05:40;17.90;96.40
14733;DHT22;7457;50.960;6.830;2022-07-23T00:08:07;17.90;96.60
14733;DHT22;7457;50.960;6.830;2022-07-23T00:10:33;17.80;96.70
14733;DHT22;7457;50.960;6.830;2022-07-23T00:13:00;17.80;97.00
14733;DHT22;7457;50.960;6.830;2022-07-23T00:15:26;17.80;97.10
14733;DHT22;7457;50.960;6.830;2022-07-23T00:17:51;17.70;97.20
14733;DHT22;7457;50.960;6.830;2022-07-23T00:20:17;17.70;97.40
14733;DHT22;7457;50.960;6.830;2022-07-23T00:22:53;17.60;97.60
14733;DHT22;7457;50.960;6.830;2022-07-23T00:25:20;17.60;97.70
14733;DHT22;7457;50.960;6.830;2022-07-23T00:27:45;17.60;97.80
14733;DHT22;7457;50.960;6.830;2022-07-23T00:30:12;17.60;98.00
14733;DHT22;7457;50.960;6.830;2022-07-23T00:32:51;17.60;98.10
14733;DHT22;7457;50.960;6.830;2022-07-23T00:35:20;17.60;98.30
14733;DHT22;7457;50.960;6.830;2022-07-23T00:37:46;17.50;98.40
14733;DHT22;7457;50.960;6.830;2022-07-23T00:40:12;17.50;98.40
14733;DHT22;7457;50.960;6.830;2022-07-23T00:42:38;17.50;98.50
14733;DHT22;7457;50.960;6.830;2022-07-23T00:45:04;17.50;98.60
14733;DHT22;7457;50.960;6.830;2022-07-23T00:47:30;17.50;98.80
14733;DHT22;7457;50.960;6.830;2022-07-23T00:49:56;17.50;98.90
14733;DHT22;7457;50.960;6.830;2022-07-23T00:52:21;17.40;98.90
14733;DHT22;7457;50.960;6.830;2022-07-23T00:54:48;17.30;99.00
14733;DHT22;7457;50.960;6.830;2022-07-23T00:57:14;17.30;99.20
14733;DHT22;7457;50.960;6.830;2022-07-23T00:59:40;17.30;99.30
14733;DHT22;7457;50.960;6.830;2022-07-23T01:02:06;17.20;99.50
14733;DHT22;7457;50.960;6.830;2022-07-23T01:04:32;17.20;99.60
14733;DHT22;7457;50.960;6.830;2022-07-23T01:06:58;17.20;99.80
14733;DHT22;7457;50.960;6.830;2022-07-23T01:09:23;17.10;99.90
14733;DHT22;7457;50.960;6.830;2022-07-23T01:11:50;17.10;99.90
14733;DHT22;7457;50.960;6.830;2022-07-23T01:14:18;17.00;99.90
14733;DHT22;7457;50.960;6.830;2022-07-23T01:16:46;17.10;99.90
14733;DHT22;7457;50.960;6.830;2022-07-23T01:19:13;17.00;99.90
14733;DHT22;7457;50.960;6.830;2022-07-23T01:21:40;17.00;99.90
14733;DHT22;7457;50.960;6.830;2022-07-23T01:24:07;17.00;99.90
14733;DHT22;7457;50.960;6.830;2022-07-23T01:26:33;17.00;99.90
14733;DHT22;7457;50.960;6.830;2022-07-23T01:28:59;17.00;99.90
14733;DHT22;7457;50.960;6.830;2022-07-23T01:31:25;17.00;99.90
14733;DHT22;7457;50.960;6.830;2022-07-23T01:33:50;17.00;99.90
14733;DHT22;7457;50.960;6.830;2022-07-23T01:36:16;17.00;99.90
14733;DHT22;7457;50.960;6.830;2022-07-23T01:38:42;17.00;99.90
14733;DHT22;7457;50.960;6.830;2022-07-23T01:41:07;17.00;99.90
14733;DHT22;7457;50.960;6.830;2022-07-23T01:43:33;17.00;99.90
14733;DHT22;7457;50.960;6.830;2022-07-23T01:45:58;17.00;99.90
14733;DHT22;7457;50.960;6.830;2022-07-23T01:48:24;16.90;99.90
14733;DHT22;7457;50.960;6.830;2022-07-23T01:50:50;16.90;99.90
14733;DHT22;7457;50.960;6.830;2022-07-23T01:53:16;16.90;99.90
14733;DHT22;7457;50.960;6.830;2022-07-23T01:55:42;16.90;99.90
14733;DHT22;7457;50.960;6.830;2022-07-23T01:58:08;16.80;99.90
14733;DHT22;7457;50.960;6.830;2022-07-23T02:00:34;16.80;99.90
14733;DHT22;7457;50.960;6.830;2022-07-23T02:02:59;16.80;99.90
14733;DHT22;7457;50.960;6.830;2022-07-23T02:05:26;16.70;99.90
14733;DHT22;7457;50.960;6.830;2022-07-23T02:07:54;16.70;99.90
14733;DHT22;7457;50.960;6.830;2022-07-23T02:10:20;16.70;99.90
14733;DHT22;7457;50.960;6.830;2022-07-23T02:12:46;16.60;99.90
14733;DHT22;7457;50.960;6.830;2022-07-23T02:15:12;16.60;99.90
14733;DHT22;7457;50.960;6.830;2022-07-23T02:17:38;16.60;99.90
14733;DHT22;7457;50.960;6.830;2022-07-23T02:20:04;16.60;99.90
14733;DHT22;7457;50.960;6.830;2022-07-23T02:22:31;16.50;99.90
14733;DHT22;7457;50.960;6.830;2022-07-23T02:24:56;16.50;99.90
14733;DHT22;7457;50.960;6.830;2022-07-23T02:27:22;16.50;99.90
14733;DHT22;7457;50.960;6.830;2022-07-23T02:29:48;16.50;99.90
14733;DHT22;7457;50.960;6.830;2022-07-23T02:32:14;16.50;99.90
14733;DHT22;7457;50.960;6.830;2022-07-23T02:34:40;16.50;99.90
14733;DHT22;7457;50.960;6.830;2022-07-23T02:37:08;16.50;99.90
14733;DHT22;7457;50.960;6.830;2022-07-23T02:39:35;16.50;99.90
14733;DHT22;7457;50.960;6.830;2022-07-23T02:42:01;16.40;99.90
14733;DHT22;7457;50.960;6.830;2022-07-23T02:44:27;16.40;99.90
14733;DHT22;7457;50.960;6.830;2022-07-23T02:46:53;16.40;99.90
14733;DHT22;7457;50.960;6.830;2022-07-23T02:49:18;16.40;99.90
14733;DHT22;7457;50.960;6.830;2022-07-23T02:51:44;16.40;99.90
14733;DHT22;7457;50.960;6.830;2022-07-23T02:54:09;16.40;99.90
14733;DHT22;7457;50.960;6.830;2022-07-23T02:56:35;16.30;99.90
14733;DHT22;7457;50.960;6.830;2022-07-23T02:59:01;16.30;99.90
14733;DHT22;7457;50.960;6.830;2022-07-23T03:01:26;16.30;99.90
14733;DHT22;7457;50.960;6.830;2022-07-23T03:03:52;16.30;99.90
14733;DHT22;7457;50.960;6.830;2022-07-23T03:06:17;16.20;99.90
14733;DHT22;7457;50.960;6.830;2022-07-23T03:08:43;16.10;99.90
14733;DHT22;7457;50.960;6.830;2022-07-23T03:11:09;16.20;99.90
14733;DHT22;7457;50.960;6.830;2022-07-23T03:13:39;16.10;99.90
14733;DHT22;7457;50.960;6.830;2022-07-23T03:16:05;16.10;99.90
14733;DHT22;7457;50.960;6.830;2022-07-23T03:18:49;16.10;99.90
14733;DHT22;7457;50.960;6.830;2022-07-23T03:21:15;16.10;99.90
14733;DHT22;7457;50.960;6.830;2022-07-23T03:23:40;16.10;99.90
14733;DHT22;7457;50.960;6.830;2022-07-23T03:26:06;16.00;99.90
14733;DHT22;7457;50.960;6.830;2022-07-23T03:28:32;16.00;99.90
14733;DHT22;7457;50.960;6.830;2022-07-23T03:30:58;16.00;99.90
14733;DHT22;7457;50.960;6.830;2022-07-23T03:33:23;16.00;99.90
14733;DHT22;7457;50.960;6.830;2022-07-23T03:35:49;16.00;99.90
14733;DHT22;7457;50.960;6.830;2022-07-23T03:38:15;16.10;99.90
14733;DHT22;7457;50.960;6.830;2022-07-23T03:40:41;16.00;99.90
14733;DHT22;7457;50.960;6.830;2022-07-23T03:43:06;16.00;99.90
14733;DHT22;7457;50.960;6.830;2022-07-23T03:45:32;16.00;99.90
14733;DHT22;7457;50.960;6.830;2022-07-23T03:47:58;16.00;99.90
14733;DHT22;7457;50.960;6.830;2022-07-23T03:50:24;15.90;99.90
14733;DHT22;7457;50.960;6.830;2022-07-23T03:52:50;15.90;99.90
14733;DHT22;7457;50.960;6.830;2022-07-23T03:55:16;15.90;99.90
14733;DHT22;7457;50.960;6.830;2022-07-23T03:57:41;15.90;99.90
14733;DHT22;7457;50.960;6.830;2022-07-23T04:00:08;15.80;99.90
14733;DHT22;7457;50.960;6.830;2022-07-23T04:02:35;15.80;99.90
14733;DHT22;7457;50.960;6.830;2022-07-23T04:05:01;15.70;99.90
14733;DHT22;7457;50.960;6.830;2022-07-23T04:07:27;15.60;99.90
14733;DHT22;7457;50.960;6.830;2022-07-23T04:09:52;15.50;99.90
14733;DHT22;7457;50.960;6.830;2022-07-23T04:12:18;15.50;99.90
14733;DHT22;7457;50.960;6.830;2022-07-23T04:14:44;15.40;99.90
14733;DHT22;7457;50.960;6.830;2022-07-23T04:17:10;15.40;99.90
14733;DHT22;7457;50.960;6.830;2022-07-23T04:19:36;15.40;99.90
14733;DHT22;7457;50.960;6.830;2022-07-23T04:22:06;15.40;99.90
14733;DHT22;7457;50.960;6.830;2022-07-23T04:24:32;15.40;99.90
14733;DHT22;7457;50.960;6.830;2022-07-23T04:26:58;15.40;99.90
14733;DHT22;7457;50.960;6.830;2022-07-23T04:29:23;15.40;99.90
14733;DHT22;7457;50.960;6.830;2022-07-23T04:31:49;15.40;99.90
14733;DHT22;7457;50.960;6.830;2022-07-23T04:34:15;15.50;99.90
14733;DHT22;7457;50.960;6.830;2022-07-23T04:36:40;15.50;99.90
14733;DHT22;7457;50.960;6.830;2022-07-23T04:39:06;15.50;99.90
14733;DHT22;7457;50.960;6.830;2022-07-23T04:41:32;15.60;99.90
14733;DHT22;7457;50.960;6.830;2022-07-23T04:43:58;15.70;99.90
14733;DHT22;7457;50.960;6.830;2022-07-23T04:46:23;15.90;99.90
14733;DHT22;7457;50.960;6.830;2022-07-23T04:48:49;16.10;99.90
14733;DHT22;7457;50.960;6.830;2022-07-23T04:51:14;16.30;99.90
14733;DHT22;7457;50.960;6.830;2022-07-23T04:53:40;16.40;99.90
14733;DHT22;7457;50.960;6.830;2022-07-23T04:56:06;16.60;99.90
14733;DHT22;7457;50.960;6.830;2022-07-23T04:58:31;16.90;99.90
14733;DHT22;7457;50.960;6.830;2022-07-23T05:00:57;17.10;99.90
14733;DHT22;7457;50.960;6.830;2022-07-23T05:03:23;17.20;99.90
14733;DHT22;7457;50.960;6.830;2022-07-23T05:05:49;17.30;99.90
14733;DHT22;7457;50.960;6.830;2022-07-23T05:08:15;17.40;99.90
14733;DHT22;7457;50.960;6.830;2022-07-23T05:10:40;17.40;99.90
14733;DHT22;7457;50.960;6.830;2022-07-23T05:13:06;17.50;99.90
14733;DHT22;7457;50.960;6.830;2022-07-23T05:15:32;17.50;99.90
14733;DHT22;7457;50.960;6.830;2022-07-23T05:17:57;17.50;99.90
14733;DHT22;7457;50.960;6.830;2022-07-23T05:20:23;17.50;99.90
14733;DHT22;7457;50.960;6.830;2022-07-23T05:22:49;17.50;99.90
14733;DHT22;7457;50.960;6.830;2022-07-23T05:25:14;17.50;99.90
14733;DHT22;7457;50.960;6.830;2022-07-23T05:27:40;17.50;99.90
14733;DHT22;7457;50.960;6.830;2022-07-23T05:30:06;17.50;99.90
14733;DHT22;7457;50.960;6.830;2022-07-23T05:32:32;17.50;99.90
14733;DHT22;7457;50.960;6.830;2022-07-23T05:34:58;17.50;99.90
14733;DHT22;7457;50.960;6.830;2022-07-23T05:37:24;17.50;99.90
14733;DHT22;7457;50.960;6.830;2022-07-23T05:39:49;17.50;99.90
14733;DHT22;7457;50.960;6.830;2022-07-23T05:42:15;17.60;99.90
14733;DHT22;7457;50.960;6.830;2022-07-23T05:44:41;17.60;99.90
14733;DHT22;7457;50.960;6.830;2022-07-23T05:47:06;17.70;99.90
14733;DHT22;7457;50.960;6.830;2022-07-23T05:49:32;17.70;99.90
14733;DHT22;7457;50.960;6.830;2022-07-23T05:51:57;17.80;99.90
14733;DHT22;7457;50.960;6.830;2022-07-23T05:54:24;17.80;99.90
14733;DHT22;7457;50.960;6.830;2022-07-23T05:56:49;17.90;99.90
14733;DHT22;7457;50.960;6.830;2022-07-23T05:59:15;17.90;99.90
14733;DHT22;7457;50.960;6.830;2022-07-23T06:01:41;18.00;99.90
14733;DHT22;7457;50.960;6.830;2022-07-23T06:04:07;18.00;99.90
14733;DHT22;7457;50.960;6.830;2022-07-23T06:06:33;18.10;99.90
14733;DHT22;7457;50.960;6.830;2022-07-23T06:08:58;18.20;99.90
14733;DHT22;7457;50.960;6.830;2022-07-23T06:11:24;18.20;99.90
14733;DHT22;7457;50.960;6.830;2022-07-23T06:13:50;18.30;99.90
14733;DHT22;7457;50.960;6.830;2022-07-23T06:16:15;18.40;99.90
14733;DHT22;7457;50.960;6.830;2022-07-23T06:18:41;18.50;99.90
14733;DHT22;7457;50.960;6.830;2022-07-23T06:21:06;18.50;99.90
14733;DHT22;7457;50.960;6.830;2022-07-23T06:23:32;18.60;99.90
14733;DHT22;7457;50.960;6.830;2022-07-23T06:25:57;18.60;99.90
14733;DHT22;7457;50.960;6.830;2022-07-23T06:28:23;18.70;99.90
14733;DHT22;7457;50.960;6.830;2022-07-23T06:30:49;18.70;99.90
14733;DHT22;7457;50.960;6.830;2022-07-23T06:33:14;18.80;99.90
14733;DHT22;7457;50.960;6.830;2022-07-23T06:35:40;18.80;99.90
14733;DHT22;7457;50.960;6.830;2022-07-23T06:38:06;18.80;99.90
14733;DHT22;7457;50.960;6.830;2022-07-23T06:40:31;18.90;99.90
14733;DHT22;7457;50.960;6.830;2022-07-23T06:42:57;18.90;99.90
14733;DHT22;7457;50.960;6.830;2022-07-23T06:45:23;19.00;99.90
14733;DHT22;7457;50.960;6.830;2022-07-23T06:47:48;19.00;99.90
14733;DHT22;7457;50.960;6.830;2022-07-23T06:50:14;19.10;99.90
14733;DHT22;7457;50.960;6.830;2022-07-23T06:52:40;19.20;99.90
14733;DHT22;7457;50.960;6.830;2022-07-23T06:55:05;19.30;99.90
14733;DHT22;7457;50.960;6.830;2022-07-23T06:57:31;19.30;99.90
14733;DHT22;7457;50.960;6.830;2022-07-23T06:59:57;19.30;99.90
14733;DHT22;7457;50.960;6.830;2022-07-23T07:02:22;19.30;99.90
14733;DHT22;7457;50.960;6.830;2022-07-23T07:04:49;19.40;99.90
14733;DHT22;7457;50.960;6.830;2022-07-23T07:07:15;19.40;99.90
14733;DHT22;7457;50.960;6.830;2022-07-23T07:09:40;19.50;99.90
14733;DHT22;7457;50.960;6.830;2022-07-23T07:12:06;19.60;99.90
14733;DHT22;7457;50.960;6.830;2022-07-23T07:14:32;19.60;99.90
14733;DHT22;7457;50.960;6.830;2022-07-23T07:16:57;19.70;99.90
14733;DHT22;7457;50.960;6.830;2022-07-23T07:19:23;19.80;99.90
14733;DHT22;7457;50.960;6.830;2022-07-23T07:21:48;19.80;99.90
14733;DHT22;7457;50.960;6.830;2022-07-23T07:24:14;20.00;99.90
14733;DHT22;7457;50.960;6.830;2022-07-23T07:26:40;20.10;99.90
14733;DHT22;7457;50.960;6.830;2022-07-23T07:29:06;20.20;99.90
14733;DHT22;7457;50.960;6.830;2022-07-23T07:31:31;20.30;99.90
14733;DHT22;7457;50.960;6.830;2022-07-23T07:33:58;20.30;99.90
14733;DHT22;7457;50.960;6.830;2022-07-23T07:36:23;20.40;99.90
14733;DHT22;7457;50.960;6.830;2022-07-23T07:38:49;20.40;99.90
14733;DHT22;7457;50.960;6.830;2022-07-23T07:41:15;20.50;99.90
14733;DHT22;7457;50.960;6.830;2022-07-23T07:43:41;20.60;99.90
14733;DHT22;7457;50.960;6.830;2022-07-23T07:46:06;20.60;99.90
14733;DHT22;7457;50.960;6.830;2022-07-23T07:48:36;20.60;99.90
14733;DHT22;7457;50.960;6.830;2022-07-23T07:51:02;20.60;99.80
14733;DHT22;7457;50.960;6.830;2022-07-23T07:53:27;20.70;99.70
14733;DHT22;7457;50.960;6.830;2022-07-23T07:55:53;20.80;99.60
14733;DHT22;7457;50.960;6.830;2022-07-23T07:58:19;20.80;99.60
14733;DHT22;7457;50.960;6.830;2022-07-23T08:00:44;20.80;99.50
14733;DHT22;7457;50.960;6.830;2022-07-23T08:03:10;20.90;99.30
14733;DHT22;7457;50.960;6.830;2022-07-23T08:05:35;20.90;99.30
14733;DHT22;7457;50.960;6.830;2022-07-23T08:08:01;21.00;99.10
14733;DHT22;7457;50.960;6.830;2022-07-23T08:10:27;21.00;99.00
14733;DHT22;7457;50.960;6.830;2022-07-23T08:12:54;21.10;98.90
14733;DHT22;7457;50.960;6.830;2022-07-23T08:15:23;21.10;98.60
14733;DHT22;7457;50.960;6.830;2022-07-23T08:17:49;21.10;98.50
14733;DHT22;7457;50.960;6.830;2022-07-23T08:20:17;21.10;98.50
14733;DHT22;7457;50.960;6.830;2022-07-23T08:22:51;21.20;98.50
14733;DHT22;7457;50.960;6.830;2022-07-23T08:25:21;21.30;98.20
14733;DHT22;7457;50.960;6.830;2022-07-23T08:27:47;21.40;97.80
14733;DHT22;7457;50.960;6.830;2022-07-23T08:30:14;21.50;97.90
14733;DHT22;7457;50.960;6.830;2022-07-23T08:32:51;21.70;98.10
14733;DHT22;7457;50.960;6.830;2022-07-23T08:35:22;21.90;97.80
14733;DHT22;7457;50.960;6.830;2022-07-23T08:37:48;22.10;97.50
14733;DHT22;7457;50.960;6.830;2022-07-23T08:40:13;22.30;97.20
14733;DHT22;7457;50.960;6.830;2022-07-23T08:42:39;22.40;96.90
14733;DHT22;7457;50.960;6.830;2022-07-23T08:45:07;22.60;96.60
14733;DHT22;7457;50.960;6.830;2022-07-23T08:47:36;22.90;96.50
14733;DHT22;7457;50.960;6.830;2022-07-23T08:50:02;23.10;96.00
14733;DHT22;7457;50.960;6.830;2022-07-23T08:52:30;23.10;95.50
14733;DHT22;7457;50.960;6.830;2022-07-23T08:54:57;23.20;95.00
14733;DHT22;7457;50.960;6.830;2022-07-23T08:57:23;23.30;94.60
14733;DHT22;7457;50.960;6.830;2022-07-23T08:59:48;23.50;94.40
14733;DHT22;7457;50.960;6.830;2022-07-23T09:02:14;23.60;94.20
14733;DHT22;7457;50.960;6.830;2022-07-23T09:04:39;23.90;94.00
14733;DHT22;7457;50.960;6.830;2022-07-23T09:07:05;24.10;93.60
14733;DHT22;7457;50.960;6.830;2022-07-23T09:09:31;24.40;93.20
14733;DHT22;7457;50.960;6.830;2022-07-23T09:12:08;24.80;92.90
14733;DHT22;7457;50.960;6.830;2022-07-23T09:14:42;25.20;92.10
14733;DHT22;7457;50.960;6.830;2022-07-23T09:17:17;25.70;91.80
14733;DHT22;7457;50.960;6.830;2022-07-23T09:19:44;26.00;91.20
14733;DHT22;7457;50.960;6.830;2022-07-23T09:22:26;26.10;90.50
14733;DHT22;7457;50.960;6.830;2022-07-23T09:25:13;26.00;89.60
14733;DHT22;7457;50.960;6.830;2022-07-23T09:30:18;25.90;89.20
14733;DHT22;7457;50.960;6.830;2022-07-23T09:32:43;26.10;89.30
14733;DHT22;7457;50.960;6.830;2022-07-23T09:35:09;26.40;88.90
14733;DHT22;7457;50.960;6.830;2022-07-23T09:37:35;26.70;87.80
14733;DHT22;7457;50.960;6.830;2022-07-23T09:40:18;27.10;87.20
14733;DHT22;7457;50.960;6.830;2022-07-23T09:42:55;27.30;85.50
14733;DHT22;7457;50.960;6.830;2022-07-23T09:45:20;27.50;84.60
14733;DHT22;7457;50.960;6.830;2022-07-23T09:47:46;27.60;84.90
14733;DHT22;7457;50.960;6.830;2022-07-23T09:50:12;27.80;82.90
14733;DHT22;7457;50.960;6.830;2022-07-23T09:52:49;27.90;82.50
14733;DHT22;7457;50.960;6.830;2022-07-23T09:55:16;28.10;81.10
14733;DHT22;7457;50.960;6.830;2022-07-23T09:57:42;28.30;81.00
14733;DHT22;7457;50.960;6.830;2022-07-23T10:00:11;28.50;79.60
14733;DHT22;7457;50.960;6.830;2022-07-23T10:02:37;28.60;78.40
14733;DHT22;7457;50.960;6.830;2022-07-23T10:05:03;28.80;78.00
14733;DHT22;7457;50.960;6.830;2022-07-23T10:07:33;28.90;76.80
14733;DHT22;7457;50.960;6.830;2022-07-23T10:10:00;29.00;76.40
14733;DHT22;7457;50.960;6.830;2022-07-23T10:12:27;29.20;75.40
14733;DHT22;7457;50.960;6.830;2022-07-23T10:15:03;29.30;74.90
14733;DHT22;7457;50.960;6.830;2022-07-23T10:17:30;29.40;74.20
14733;DHT22;7457;50.960;6.830;2022-07-23T10:19:59;29.50;73.20
14733;DHT22;7457;50.960;6.830;2022-07-23T10:22:27;29.70;72.20
14733;DHT22;7457;50.960;6.830;2022-07-23T10:25:32;29.80;71.50
14733;DHT22;7457;50.960;6.830;2022-07-23T10:41:40;30.50;66.90
14733;DHT22;7457;50.960;6.830;2022-07-23T10:44:19;30.50;66.80
14733;DHT22;7457;50.960;6.830;2022-07-23T10:47:02;30.50;66.60
14733;DHT22;7457;50.960;6.830;2022-07-23T10:49:43;30.50;65.00
14733;DHT22;7457;50.960;6.830;2022-07-23T10:57:12;30.50;65.00
14733;DHT22;7457;50.960;6.830;2022-07-23T11:02:25;30.90;63.60
14733;DHT22;7457;50.960;6.830;2022-07-23T11:04:52;30.90;63.40
14733;DHT22;7457;50.960;6.830;2022-07-23T11:07:28;31.10;63.80
14733;DHT22;7457;50.960;6.830;2022-07-23T11:09:57;31.20;63.00
14733;DHT22;7457;50.960;6.830;2022-07-23T11:15:05;31.20;61.80
14733;DHT22;7457;50.960;6.830;2022-07-23T11:22:55;31.30;59.90
14733;DHT22;7457;50.960;6.830;2022-07-23T11:27:48;31.30;59.20
14733;DHT22;7457;50.960;6.830;2022-07-23T11:32:51;31.30;58.10
14733;DHT22;7457;50.960;6.830;2022-07-23T11:35:24;31.20;58.20
14733;DHT22;7457;50.960;6.830;2022-07-23T11:37:52;31.10;58.30
14733;DHT22;7457;50.960;6.830;2022-07-23T11:40:20;31.00;58.00
14733;DHT22;7457;50.960;6.830;2022-07-23T11:43:15;31.10;57.70
14733;DHT22;7457;50.960;6.830;2022-07-23T11:45:44;31.30;57.20
14733;DHT22;7457;50.960;6.830;2022-07-23T11:48:16;31.60;57.10
14733;DHT22;7457;50.960;6.830;2022-07-23T11:50:42;31.70;56.30
14733;DHT22;7457;50.960;6.830;2022-07-23T11:53:08;31.90;55.90
14733;DHT22;7457;50.960;6.830;2022-07-23T11:55:34;32.10;55.60
14733;DHT22;7457;50.960;6.830;2022-07-23T11:57:59;32.10;55.10
14733;DHT22;7457;50.960;6.830;2022-07-23T12:00:28;32.10;54.60
14733;DHT22;7457;50.960;6.830;2022-07-23T12:05:24;32.00;53.90
14733;DHT22;7457;50.960;6.830;2022-07-23T12:07:52;31.90;53.70
14733;DHT22;7457;50.960;6.830;2022-07-23T12:10:19;32.10;53.90
14733;DHT22;7457;50.960;6.830;2022-07-23T12:12:46;32.10;52.90
14733;DHT22;7457;50.960;6.830;2022-07-23T12:15:15;32.30;52.70
14733;DHT22;7457;50.960;6.830;2022-07-23T12:17:43;32.30;52.20
14733;DHT22;7457;50.960;6.830;2022-07-23T12:20:12;32.30;52.10
14733;DHT22;7457;50.960;6.830;2022-07-23T12:22:41;32.20;52.00
14733;DHT22;7457;50.960;6.830;2022-07-23T12:25:11;32.20;51.70
14733;DHT22;7457;50.960;6.830;2022-07-23T12:27:37;32.20;51.80
14733;DHT22;7457;50.960;6.830;2022-07-23T12:32:44;32.20;52.00
14733;DHT22;7457;50.960;6.830;2022-07-23T12:35:10;32.10;51.40
14733;DHT22;7457;50.960;6.830;2022-07-23T12:37:37;31.80;50.90
14733;DHT22;7457;50.960;6.830;2022-07-23T12:40:27;31.60;51.10
14733;DHT22;7457;50.960;6.830;2022-07-23T12:42:59;31.20;51.30
14733;DHT22;7457;50.960;6.830;2022-07-23T12:45:26;30.90;51.70
14733;DHT22;7457;50.960;6.830;2022-07-23T12:48:05;30.50;51.90
14733;DHT22;7457;50.960;6.830;2022-07-23T12:50:58;30.30;52.20
14733;DHT22;7457;50.960;6.830;2022-07-23T12:53:25;30.10;52.30
14733;DHT22;7457;50.960;6.830;2022-07-23T12:56:21;29.90;53.30
14733;DHT22;7457;50.960;6.830;2022-07-23T12:58:48;29.70;53.30
14733;DHT22;7457;50.960;6.830;2022-07-23T13:04:09;29.50;53.80
14733;DHT22;7457;50.960;6.830;2022-07-23T13:06:37;29.30;53.50
14733;DHT22;7457;50.960;6.830;2022-07-23T13:09:04;29.10;53.70
14733;DHT22;7457;50.960;6.830;2022-07-23T13:11:30;29.00;54.20
14733;DHT22;7457;50.960;6.830;2022-07-23T13:13:56;28.90;54.40
14733;DHT22;7457;50.960;6.830;2022-07-23T13:16:22;28.80;54.50
14733;DHT22;7457;50.960;6.830;2022-07-23T13:18:48;28.70;54.50
14733;DHT22;7457;50.960;6.830;2022-07-23T13:21:14;28.60;54.60
14733;DHT22;7457;50.960;6.830;2022-07-23T13:23:39;28.60;54.60
14733;DHT22;7457;50.960;6.830;2022-07-23T13:26:05;28.60;54.50
14733;DHT22;7457;50.960;6.830;2022-07-23T13:28:31;28.50;54.90
14733;DHT22;7457;50.960;6.830;2022-07-23T13:30:57;28.50;55.00
14733;DHT22;7457;50.960;6.830;2022-07-23T13:33:23;28.50;55.10
14733;DHT22;7457;50.960;6.830;2022-07-23T13:35:51;28.60;55.60
14733;DHT22;7457;50.960;6.830;2022-07-23T13:38:18;28.50;55.10
14733;DHT22;7457;50.960;6.830;2022-07-23T13:40:46;28.30;55.20
14733;DHT22;7457;50.960;6.830;2022-07-23T13:43:14;28.10;55.40
14733;DHT22;7457;50.960;6.830;2022-07-23T13:45:41;28.00;55.60
14733;DHT22;7457;50.960;6.830;2022-07-23T13:48:12;27.80;55.80
14733;DHT22;7457;50.960;6.830;2022-07-23T13:50:40;27.80;55.80
14733;DHT22;7457;50.960;6.830;2022-07-23T13:53:08;27.80;55.90
14733;DHT22;7457;50.960;6.830;2022-07-23T13:55:35;27.80;56.10
14733;DHT22;7457;50.960;6.830;2022-07-23T13:58:01;27.80;55.80
14733;DHT22;7457;50.960;6.830;2022-07-23T14:00:27;27.70;56.10
14733;DHT22;7457;50.960;6.830;2022-07-23T14:02:54;27.70;56.10
14733;DHT22;7457;50.960;6.830;2022-07-23T14:05:19;27.70;56.50
14733;DHT22;7457;50.960;6.830;2022-07-23T14:07:45;27.70;56.10
14733;DHT22;7457;50.960;6.830;2022-07-23T14:10:12;27.70;56.20
14733;DHT22;7457;50.960;6.830;2022-07-23T14:12:38;27.70;56.20
14733;DHT22;7457;50.960;6.830;2022-07-23T14:15:05;27.70;56.40
14733;DHT22;7457;50.960;6.830;2022-07-23T14:17:32;27.70;56.40
14733;DHT22;7457;50.960;6.830;2022-07-23T14:19:58;27.70;56.50
14733;DHT22;7457;50.960;6.830;2022-07-23T14:22:24;27.70;56.40
14733;DHT22;7457;50.960;6.830;2022-07-23T14:24:49;27.70;56.50
14733;DHT22;7457;50.960;6.830;2022-07-23T14:27:15;27.70;56.50
14733;DHT22;7457;50.960;6.830;2022-07-23T14:29:41;27.70;56.60
14733;DHT22;7457;50.960;6.830;2022-07-23T14:32:07;27.70;56.50
14733;DHT22;7457;50.960;6.830;2022-07-23T14:34:33;27.70;56.60
14733;DHT22;7457;50.960;6.830;2022-07-23T14:36:59;27.60;56.70
14733;DHT22;7457;50.960;6.830;2022-07-23T14:39:25;27.60;56.70
14733;DHT22;7457;50.960;6.830;2022-07-23T14:41:51;27.50;56.80
14733;DHT22;7457;50.960;6.830;2022-07-23T14:44:17;27.40;57.10
14733;DHT22;7457;50.960;6.830;2022-07-23T14:46:42;27.40;57.10
14733;DHT22;7457;50.960;6.830;2022-07-23T14:49:08;27.30;57.30
14733;DHT22;7457;50.960;6.830;2022-07-23T14:51:34;27.30;57.00
14733;DHT22;7457;50.960;6.830;2022-07-23T14:54:00;27.30;57.00
14733;DHT22;7457;50.960;6.830;2022-07-23T14:56:25;27.30;57.00
14733;DHT22;7457;50.960;6.830;2022-07-23T14:58:51;27.40;57.10
14733;DHT22;7457;50.960;6.830;2022-07-23T15:01:16;27.40;57.10
14733;DHT22;7457;50.960;6.830;2022-07-23T15:03:42;27.40;57.10
14733;DHT22;7457;50.960;6.830;2022-07-23T15:06:08;27.40;57.10
14733;DHT22;7457;50.960;6.830;2022-07-23T15:08:33;27.40;56.80
14733;DHT22;7457;50.960;6.830;2022-07-23T15:10:59;27.40;57.10
14733;DHT22;7457;50.960;6.830;2022-07-23T15:13:25;27.30;57.00
14733;DHT22;7457;50.960;6.830;2022-07-23T15:15:50;27.30;57.00
14733;DHT22;7457;50.960;6.830;2022-07-23T15:18:16;27.30;57.00
14733;DHT22;7457;50.960;6.830;2022-07-23T15:20:42;27.30;57.00
14733;DHT22;7457;50.960;6.830;2022-07-23T15:23:08;27.20;57.00
14733;DHT22;7457;50.960;6.830;2022-07-23T15:25:34;27.20;57.00
14733;DHT22;7457;50.960;6.830;2022-07-23T15:27:59;27.20;57.00
14733;DHT22;7457;50.960;6.830;2022-07-23T15:30:26;27.10;56.90
14733;DHT22;7457;50.960;6.830;2022-07-23T15:32:52;27.10;57.20
14733;DHT22;7457;50.960;6.830;2022-07-23T15:35:19;27.10;57.50
14733;DHT22;7457;50.960;6.830;2022-07-23T15:37:45;27.10;57.40
14733;DHT22;7457;50.960;6.830;2022-07-23T15:40:11;27.00;57.40
14733;DHT22;7457;50.960;6.830;2022-07-23T15:42:37;27.00;56.90
14733;DHT22;7457;50.960;6.830;2022-07-23T15:45:04;27.00;56.90
14733;DHT22;7457;50.960;6.830;2022-07-23T15:47:30;27.00;56.90
14733;DHT22;7457;50.960;6.830;2022-07-23T15:49:56;26.90;57.30
14733;DHT22;7457;50.960;6.830;2022-07-23T15:52:21;26.80;57.60
14733;DHT22;7457;50.960;6.830;2022-07-23T15:54:47;26.80;57.60
14733;DHT22;7457;50.960;6.830;2022-07-23T15:57:13;26.70;57.70
14733;DHT22;7457;50.960;6.830;2022-07-23T15:59:38;26.70;57.90
14733;DHT22;7457;50.960;6.830;2022-07-23T16:02:05;26.70;58.00
14733;DHT22;7457;50.960;6.830;2022-07-23T16:04:31;26.80;58.10
14733;DHT22;7457;50.960;6.830;2022-07-23T16:06:57;26.80;57.80
14733;DHT22;7457;50.960;6.830;2022-07-23T16:09:23;26.80;57.90
14733;DHT22;7457;50.960;6.830;2022-07-23T16:11:49;26.80;57.70
14733;DHT22;7457;50.960;6.830;2022-07-23T16:14:15;26.80;57.80
14733;DHT22;7457;50.960;6.830;2022-07-23T16:16:41;26.80;57.80
14733;DHT22;7457;50.960;6.830;2022-07-23T16:19:07;26.80;57.80
14733;DHT22;7457;50.960;6.830;2022-07-23T16:21:32;26.70;57.60
14733;DHT22;7457;50.960;6.830;2022-07-23T16:23:58;26.70;57.70
14733;DHT22;7457;50.960;6.830;2022-07-23T16:26:24;26.60;57.70
14733;DHT22;7457;50.960;6.830;2022-07-23T16:28:49;26.60;57.50